Time;durP1;ratioP1;P1;durP2;ratioP2;P2;SDS_P1;SDS_P2;PMS_P1;PMS_P2;Temp;Humidity;BMP_temperature;BMP_pressure;BME280_temperature;BME280_humidity;BME280_pressure;Samples;Min_cycle;Max_cycle;Signal;HPM_P1;HPM_P2
2024/02/03 00:01:23;;;;;;;7.87;7.07;;;8.30;99.90;;;;;;5014839;28;20274;-61
2024/02/03 00:03:51;;;;;;;6.93;6.32;;;8.30;99.90;;;;;;5016360;28;20454;-62
2024/02/03 00:06:17;;;;;;;7.07;6.30;;;8.30;99.90;;;;;;5016717;28;20315;-61
2024/02/03 00:08:44;;;;;;;8.40;7.18;;;8.40;99.90;;;;;;5015360;28;20215;-58
2024/02/03 00:11:11;;;;;;;8.23;7.20;;;8.40;99.90;;;;;;5012630;28;20273;-60
2024/02/03 00:13:40;;;;;;;7.60;6.85;;;8.40;99.90;;;;;;5017301;28;20236;-62
2024/02/03 00:16:08;;;;;;;10.20;7.23;;;8.40;99.90;;;;;;5016539;28;20336;-61
2024/02/03 00:18:35;;;;;;;8.75;7.85;;;8.30;99.90;;;;;;5011284;28;20453;-61
2024/02/03 00:21:04;;;;;;;8.55;7.68;;;8.30;99.90;;;;;;5015068;28;20212;-60
2024/02/03 00:23:31;;;;;;;9.00;8.20;;;8.40;99.90;;;;;;5016894;28;20207;-61
2024/02/03 00:25:58;;;;;;;8.23;7.53;;;8.30;99.90;;;;;;5016430;28;20310;-60
2024/02/03 00:28:25;;;;;;;7.75;6.95;;;8.30;99.90;;;;;;5014113;28;20503;-61
2024/02/03 00:30:53;;;;;;;8.53;7.50;;;8.30;99.90;;;;;;5011416;28;20220;-59
2024/02/03 00:33:20;;;;;;;8.55;7.65;;;8.30;99.90;;;;;;5025211;28;20523;-61
2024/02/03 00:35:47;;;;;;;7.45;6.75;;;8.30;99.90;;;;;;5019721;28;20287;-62
2024/02/03 00:38:14;;;;;;;11.93;9.15;;;8.30;99.90;;;;;;5019253;28;20564;-60
2024/02/03 00:40:41;;;;;;;7.32;6.63;;;8.40;99.90;;;;;;5012310;28;20265;-61
2024/02/03 00:43:08;;;;;;;9.38;7.68;;;8.40;99.90;;;;;;5016728;28;20283;-61
2024/02/03 00:45:34;;;;;;;7.83;7.03;;;8.30;99.90;;;;;;5016900;28;20223;-60
2024/02/03 00:48:03;;;;;;;10.47;9.37;;;8.40;99.90;;;;;;5016555;28;20517;-62
2024/02/03 00:50:30;;;;;;;11.52;7.90;;;8.30;99.90;;;;;;5023009;28;20543;-61
2024/02/03 00:52:57;;;;;;;9.40;8.40;;;8.30;99.90;;;;;;5022537;28;20246;-61
2024/02/03 00:55:24;;;;;;;8.25;7.35;;;8.30;99.90;;;;;;5018690;28;20274;-61
2024/02/03 00:57:51;;;;;;;10.25;8.40;;;8.40;99.90;;;;;;5019400;28;20291;-61
2024/02/03 01:00:20;;;;;;;12.07;9.60;;;8.40;99.90;;;;;;5020728;28;20239;-61
2024/02/03 01:02:47;;;;;;;8.93;8.03;;;8.40;99.90;;;;;;5026732;28;20931;-61
2024/02/03 01:05:15;;;;;;;9.68;8.70;;;8.40;99.90;;;;;;5023983;28;20446;-62
2024/02/03 01:07:42;;;;;;;9.33;8.00;;;8.40;99.90;;;;;;5023893;28;20232;-62
2024/02/03 01:10:10;;;;;;;8.10;7.30;;;8.40;99.90;;;;;;5020025;28;20477;-62
2024/02/03 01:12:37;;;;;;;8.25;7.15;;;8.40;99.90;;;;;;5020764;28;20941;-63
2024/02/03 01:15:04;;;;;;;8.07;7.28;;;8.40;99.90;;;;;;5016238;28;20649;-61
2024/02/03 01:17:31;;;;;;;10.60;8.77;;;8.40;99.90;;;;;;5018849;28;20227;-61
2024/02/03 01:19:58;;;;;;;9.20;7.20;;;8.40;99.90;;;;;;5017895;28;20243;-61
2024/02/03 01:22:27;;;;;;;8.07;7.37;;;8.40;99.90;;;;;;5019786;28;20441;-61
2024/02/03 01:24:54;;;;;;;8.75;6.90;;;8.40;99.90;;;;;;5013802;28;20537;-59
2024/02/03 01:27:21;;;;;;;8.48;7.47;;;8.40;99.90;;;;;;5020201;28;20281;-61
2024/02/03 01:29:48;;;;;;;8.80;7.97;;;8.30;99.90;;;;;;5013667;28;20266;-61
2024/02/03 01:32:15;;;;;;;9.90;8.70;;;8.40;99.90;;;;;;5020195;28;20211;-61
2024/02/03 01:34:42;;;;;;;8.25;7.43;;;8.40;99.90;;;;;;5015716;28;20270;-62
2024/02/03 01:37:09;;;;;;;7.82;7.07;;;8.40;99.90;;;;;;5014484;28;20239;-58
2024/02/03 01:39:37;;;;;;;8.93;7.28;;;8.40;99.90;;;;;;5019772;28;20220;-60
2024/02/03 01:42:04;;;;;;;8.53;7.47;;;8.40;99.90;;;;;;5015716;28;20235;-61
2024/02/03 01:44:32;;;;;;;9.47;7.57;;;8.40;99.90;;;;;;5014253;28;20443;-60
2024/02/03 01:47:00;;;;;;;7.83;7.03;;;8.40;99.90;;;;;;5018671;28;20942;-60
2024/02/03 01:49:27;;;;;;;10.57;8.18;;;8.40;99.90;;;;;;5018720;28;21292;-58
2024/02/03 01:51:55;;;;;;;8.33;7.43;;;8.40;99.90;;;;;;5018932;28;20308;-60
2024/02/03 01:54:22;;;;;;;9.98;8.38;;;8.40;99.90;;;;;;5017944;28;20550;-61
2024/02/03 01:56:52;;;;;;;8.60;7.72;;;8.50;99.90;;;;;;5014543;28;20228;-60
2024/02/03 01:59:20;;;;;;;8.25;7.50;;;8.50;99.90;;;;;;5021717;28;20281;-60
2024/02/03 02:01:48;;;;;;;10.73;7.50;;;8.40;99.90;;;;;;5014121;28;20216;-59
2024/02/03 02:04:15;;;;;;;8.82;7.10;;;8.50;99.90;;;;;;5017286;28;20447;-60
2024/02/03 02:06:42;;;;;;;8.07;7.20;;;8.50;99.90;;;;;;5023873;28;20231;-61
2024/02/03 02:09:09;;;;;;;8.07;7.37;;;8.50;99.90;;;;;;5029157;28;20489;-61
2024/02/03 02:11:37;;;;;;;8.90;8.00;;;8.50;99.90;;;;;;5030575;28;20450;-61
2024/02/03 02:14:05;;;;;;;8.45;7.60;;;8.40;99.90;;;;;;5017901;28;20485;-60
2024/02/03 02:16:32;;;;;;;12.37;9.23;;;8.50;99.90;;;;;;5030607;28;20243;-57
2024/02/03 02:19:02;;;;;;;9.53;8.20;;;8.40;99.90;;;;;;5030757;28;20460;-61
2024/02/03 02:21:30;;;;;;;10.30;8.30;;;8.40;99.90;;;;;;5029840;28;20450;-61
2024/02/03 02:23:57;;;;;;;8.88;7.82;;;8.40;99.90;;;;;;5029112;28;20454;-60
2024/02/03 02:26:24;;;;;;;8.60;7.80;;;8.40;99.90;;;;;;5027861;28;20276;-61
2024/02/03 02:28:52;;;;;;;9.73;7.57;;;8.40;99.90;;;;;;5016734;28;20272;-59
2024/02/03 02:31:19;;;;;;;8.27;7.57;;;8.30;99.90;;;;;;5022276;28;20211;-61
2024/02/03 02:33:46;;;;;;;8.48;7.78;;;8.30;99.90;;;;;;5018642;28;20227;-59
2024/02/03 02:36:13;;;;;;;9.65;7.60;;;8.30;99.90;;;;;;5023858;28;20890;-61
2024/02/03 02:38:41;;;;;;;9.40;7.40;;;8.30;99.90;;;;;;5019707;28;20246;-59
2024/02/03 02:41:10;;;;;;;7.83;7.03;;;8.30;99.90;;;;;;5023634;28;20211;-60
2024/02/03 02:43:37;;;;;;;8.00;7.25;;;8.30;99.90;;;;;;5030487;28;20453;-61
2024/02/03 02:46:04;;;;;;;11.30;9.60;;;8.30;99.90;;;;;;5028787;28;20277;-60
2024/02/03 02:48:31;;;;;;;8.32;6.63;;;8.20;99.90;;;;;;5029033;28;20292;-61
2024/02/03 02:50:58;;;;;;;8.83;7.70;;;8.20;99.90;;;;;;5029667;28;20697;-59
2024/02/03 02:53:25;;;;;;;8.13;7.32;;;8.20;99.90;;;;;;5030349;28;20454;-62
2024/02/03 02:55:54;;;;;;;8.77;7.87;;;8.20;99.90;;;;;;5030250;28;20243;-60
2024/02/03 02:58:21;;;;;;;10.05;7.18;;;8.20;99.90;;;;;;5030047;28;20450;-60
2024/02/03 03:00:48;;;;;;;9.38;7.15;;;8.20;99.90;;;;;;5029645;28;20298;-61
2024/02/03 03:03:15;;;;;;;8.20;7.00;;;8.20;99.90;;;;;;5030013;28;20302;-60
2024/02/03 03:05:42;;;;;;;7.97;6.43;;;8.20;99.90;;;;;;5030065;28;20454;-61
2024/02/03 03:08:09;;;;;;;11.95;6.68;;;8.20;99.90;;;;;;5029806;28;20269;-61
2024/02/03 03:10:36;;;;;;;7.90;6.40;;;8.20;99.90;;;;;;5029386;28;20298;-61
2024/02/03 03:13:05;;;;;;;9.77;7.90;;;8.20;99.90;;;;;;5029351;28;20261;-60
2024/02/03 03:15:32;;;;;;;9.30;7.75;;;8.20;99.90;;;;;;5029671;28;20540;-61
2024/02/03 03:17:59;;;;;;;9.53;8.43;;;8.20;99.90;;;;;;5029662;28;20302;-59
2024/02/03 03:20:25;;;;;;;9.00;7.43;;;8.20;99.90;;;;;;5030131;28;20509;-61
2024/02/03 03:22:52;;;;;;;7.60;6.27;;;8.10;99.90;;;;;;5029385;28;20532;-58
2024/02/03 03:25:20;;;;;;;8.90;8.00;;;8.10;99.90;;;;;;5029531;28;20750;-60
2024/02/03 03:27:46;;;;;;;8.10;7.30;;;8.10;99.90;;;;;;5029501;28;20233;-61
2024/02/03 03:30:15;;;;;;;7.80;6.68;;;8.10;99.90;;;;;;5029411;28;20489;-60
2024/02/03 03:32:42;;;;;;;9.85;7.45;;;8.10;99.90;;;;;;5029191;28;20657;-60
2024/02/03 03:35:09;;;;;;;8.27;7.00;;;8.10;99.90;;;;;;5029271;28;20230;-62
2024/02/03 03:37:36;;;;;;;9.63;6.70;;;8.00;99.90;;;;;;5029488;28;20481;-60
2024/02/03 03:40:03;;;;;;;6.50;5.88;;;8.00;99.90;;;;;;5029235;28;20301;-58
2024/02/03 03:42:30;;;;;;;6.93;6.28;;;8.10;99.90;;;;;;5028871;28;20850;-59
2024/02/03 03:44:57;;;;;;;7.90;6.28;;;8.10;99.90;;;;;;5029087;28;20217;-61
2024/02/03 03:47:25;;;;;;;6.40;5.77;;;8.10;99.90;;;;;;5029502;28;20713;-60
2024/02/03 03:49:52;;;;;;;7.32;5.78;;;8.00;99.90;;;;;;5029409;28;20543;-60
2024/02/03 03:52:19;;;;;;;7.45;4.88;;;8.00;99.90;;;;;;5028304;28;20210;-61
2024/02/03 03:54:45;;;;;;;7.15;6.55;;;8.00;99.90;;;;;;5028322;28;20763;-60
2024/02/03 03:57:12;;;;;;;6.10;5.60;;;7.90;99.90;;;;;;5023557;28;20233;-59
2024/02/03 03:59:39;;;;;;;9.10;6.90;;;7.90;99.90;;;;;;5023607;28;20215;-60
2024/02/03 04:02:06;;;;;;;5.43;4.75;;;7.90;99.90;;;;;;5027107;28;20650;-60
2024/02/03 04:04:38;;;;;;;8.57;5.53;;;7.90;99.90;;;;;;5023575;28;20203;-59
2024/02/03 04:07:05;;;;;;;5.70;4.35;;;7.80;99.90;;;;;;5027656;28;20317;-56
2024/02/03 04:09:32;;;;;;;6.65;5.13;;;7.90;99.90;;;;;;5023775;28;20807;-59
2024/02/03 04:11:58;;;;;;;4.90;4.50;;;7.80;99.90;;;;;;5026538;28;20219;-60
2024/02/03 04:14:25;;;;;;;5.53;4.97;;;7.80;99.90;;;;;;5024109;28;20321;-58
2024/02/03 04:16:52;;;;;;;4.70;4.22;;;7.80;99.90;;;;;;5026073;28;20907;-58
2024/02/03 04:19:19;;;;;;;4.68;4.28;;;7.80;99.90;;;;;;5027230;28;20270;-59
2024/02/03 04:21:47;;;;;;;5.10;4.53;;;7.80;99.90;;;;;;5024940;28;20293;-55
2024/02/03 04:24:14;;;;;;;5.28;4.78;;;7.80;99.90;;;;;;5023444;28;20758;-57
2024/02/03 04:26:41;;;;;;;5.80;5.20;;;7.80;99.90;;;;;;5026912;28;20234;-57
2024/02/03 04:29:08;;;;;;;6.88;5.00;;;7.80;99.90;;;;;;5023691;28;21624;-60
2024/02/03 04:31:34;;;;;;;4.78;3.92;;;7.80;99.90;;;;;;5026614;28;20221;-59
2024/02/03 04:34:01;;;;;;;5.80;5.25;;;7.80;99.90;;;;;;5024806;28;20661;-59
2024/02/03 04:36:28;;;;;;;5.05;4.07;;;7.80;99.90;;;;;;5026728;28;20321;-56
2024/02/03 04:38:56;;;;;;;5.05;3.90;;;7.80;99.90;;;;;;5026839;28;20313;-59
2024/02/03 04:41:24;;;;;;;6.47;5.25;;;7.80;99.90;;;;;;5025479;28;20669;-55
2024/02/03 04:43:51;;;;;;;6.38;5.15;;;7.80;99.90;;;;;;5026777;28;20218;-60
2024/02/03 04:46:18;;;;;;;6.10;4.10;;;7.70;99.90;;;;;;5023221;28;20220;-59
2024/02/03 04:48:45;;;;;;;5.43;4.93;;;7.80;99.90;;;;;;5023894;28;20215;-61
2024/02/03 04:51:12;;;;;;;6.80;4.35;;;7.80;99.90;;;;;;5016508;28;20215;-58
2024/02/03 04:53:40;;;;;;;6.03;5.20;;;7.80;99.90;;;;;;5012305;28;20243;-60
2024/02/03 04:56:08;;;;;;;5.43;4.93;;;7.70;99.90;;;;;;5019940;28;20871;-60
2024/02/03 04:58:35;;;;;;;5.15;4.65;;;7.70;99.90;;;;;;5022255;28;20220;-60
2024/02/03 05:01:03;;;;;;;6.13;5.50;;;7.70;99.90;;;;;;5014813;28;20222;-58
2024/02/03 05:03:31;;;;;;;6.50;4.70;;;7.70;99.90;;;;;;5027831;28;20256;-57
2024/02/03 05:06:02;;;;;;;5.88;5.38;;;7.70;99.90;;;;;;5019948;28;20223;-59
2024/02/03 05:08:29;;;;;;;5.00;4.50;;;7.70;99.90;;;;;;5027772;28;20212;-60
2024/02/03 05:10:56;;;;;;;5.45;4.95;;;7.70;99.90;;;;;;5027539;28;20241;-59
2024/02/03 05:13:25;;;;;;;4.32;3.90;;;7.70;99.90;;;;;;5024698;28;20212;-56
2024/02/03 05:15:52;;;;;;;5.28;4.65;;;7.70;99.90;;;;;;5027041;28;20258;-59
2024/02/03 05:18:19;;;;;;;5.72;4.75;;;7.70;99.90;;;;;;5021133;28;20203;-60
2024/02/03 05:20:46;;;;;;;5.65;5.15;;;7.70;99.90;;;;;;5027117;28;20207;-60
2024/02/03 05:23:12;;;;;;;4.97;4.43;;;7.70;99.90;;;;;;5024748;28;20704;-59
2024/02/03 05:25:39;;;;;;;5.57;3.87;;;7.70;99.90;;;;;;5026059;28;20434;-60
2024/02/03 05:28:07;;;;;;;5.30;4.70;;;7.70;99.90;;;;;;5022820;28;20456;-60
2024/02/03 05:30:35;;;;;;;5.10;4.07;;;7.70;99.90;;;;;;5026509;28;20981;-59
2024/02/03 05:33:01;;;;;;;5.82;4.90;;;7.70;99.90;;;;;;5024467;28;20446;-58
2024/02/03 05:35:28;;;;;;;5.57;5.07;;;7.80;99.90;;;;;;5027273;28;20655;-59
2024/02/03 05:37:55;;;;;;;5.17;3.87;;;7.80;99.90;;;;;;5025228;28;20310;-58
2024/02/03 05:40:22;;;;;;;6.22;4.57;;;7.70;99.90;;;;;;5030378;28;20450;-59
2024/02/03 05:42:49;;;;;;;4.63;3.95;;;7.80;99.90;;;;;;5027444;28;20213;-61
2024/02/03 05:45:17;;;;;;;4.18;3.78;;;7.80;99.90;;;;;;5028946;28;20208;-59
2024/02/03 05:47:45;;;;;;;5.30;4.68;;;7.70;99.90;;;;;;5026223;28;20235;-58
2024/02/03 05:50:12;;;;;;;4.22;3.85;;;7.70;99.90;;;;;;5030409;28;20206;-57
2024/02/03 05:52:39;;;;;;;5.30;4.80;;;7.70;99.90;;;;;;5031227;28;20211;-58
2024/02/03 05:55:08;;;;;;;5.32;4.78;;;7.70;99.90;;;;;;5029545;28;20258;-59
2024/02/03 05:57:34;;;;;;;4.60;4.20;;;7.70;99.90;;;;;;5031241;28;20281;-60
2024/02/03 06:00:01;;;;;;;3.95;3.45;;;7.80;99.90;;;;;;5030200;28;20217;-58
2024/02/03 06:02:30;;;;;;;4.45;4.05;;;7.80;99.90;;;;;;5030771;28;20218;-59
2024/02/03 06:04:58;;;;;;;3.55;3.25;;;7.70;99.90;;;;;;5028445;28;20211;-59
2024/02/03 06:07:25;;;;;;;4.03;3.65;;;7.70;99.90;;;;;;5019644;28;20254;-61
2024/02/03 06:09:52;;;;;;;3.70;3.17;;;7.70;99.90;;;;;;5030239;28;20737;-60
2024/02/03 06:12:19;;;;;;;4.53;4.13;;;7.70;99.90;;;;;;5030442;28;20203;-60
2024/02/03 06:14:46;;;;;;;4.47;3.88;;;7.70;99.90;;;;;;5028003;28;20461;-58
2024/02/03 06:17:13;;;;;;;5.00;3.88;;;7.70;99.90;;;;;;5028462;28;20317;-60
2024/02/03 06:19:40;;;;;;;4.60;4.20;;;7.70;99.90;;;;;;5030291;28;20215;-60
2024/02/03 06:22:08;;;;;;;4.50;3.55;;;7.60;99.90;;;;;;5021795;28;20298;-60
2024/02/03 06:24:35;;;;;;;4.35;3.90;;;7.60;99.90;;;;;;5022710;28;20216;-59
2024/02/03 06:27:02;;;;;;;5.00;4.38;;;7.70;99.90;;;;;;5029787;28;20237;-57
2024/02/03 06:29:29;;;;;;;4.43;3.97;;;7.70;99.90;;;;;;5029976;28;20704;-59
2024/02/03 06:31:55;;;;;;;4.72;3.08;;;7.70;99.90;;;;;;5029952;28;20213;-58
2024/02/03 06:34:22;;;;;;;3.03;2.83;;;7.70;99.90;;;;;;5023494;28;20665;-59
2024/02/03 06:36:50;;;;;;;3.90;3.60;;;7.70;99.90;;;;;;5022079;28;20255;-61
2024/02/03 06:39:18;;;;;;;4.25;3.92;;;7.70;99.90;;;;;;5029162;28;20341;-60
2024/02/03 06:41:46;;;;;;;3.60;3.30;;;7.70;99.90;;;;;;5021681;28;20229;-58
2024/02/03 06:44:12;;;;;;;2.60;2.40;;;7.70;99.90;;;;;;5030686;28;20209;-56
2024/02/03 06:46:39;;;;;;;3.28;2.83;;;7.70;99.90;;;;;;5026464;28;20591;-60
2024/02/03 06:49:06;;;;;;;3.33;3.03;;;7.70;99.90;;;;;;5021804;28;20212;-60
2024/02/03 06:51:33;;;;;;;3.35;3.05;;;7.70;99.90;;;;;;5028797;28;20215;-59
2024/02/03 06:54:00;;;;;;;2.72;2.53;;;7.70;99.90;;;;;;5021241;28;20218;-58
2024/02/03 06:56:28;;;;;;;3.78;3.42;;;7.70;99.90;;;;;;5024048;28;20227;-59
2024/02/03 06:58:55;;;;;;;3.25;2.72;;;7.70;99.90;;;;;;5026508;28;20233;-60
2024/02/03 07:01:22;;;;;;;3.50;2.78;;;7.70;99.90;;;;;;5023122;28;20210;-60
2024/02/03 07:03:49;;;;;;;2.58;2.35;;;7.70;99.90;;;;;;5030229;28;20215;-59
2024/02/03 07:06:16;;;;;;;2.00;1.70;;;7.60;99.90;;;;;;5029841;28;20322;-60
2024/02/03 07:08:42;;;;;;;3.53;2.50;;;7.60;99.90;;;;;;5029808;28;20215;-60
2024/02/03 07:11:10;;;;;;;3.53;2.53;;;7.60;99.90;;;;;;5029888;28;20252;-60
2024/02/03 07:13:38;;;;;;;2.97;2.80;;;7.60;99.90;;;;;;5030443;28;20305;-59
2024/02/03 07:16:06;;;;;;;2.47;2.20;;;7.60;99.90;;;;;;5026724;28;20236;-59
2024/02/03 07:18:33;;;;;;;2.20;1.52;;;7.60;99.90;;;;;;5024915;28;20319;-60
2024/02/03 07:21:00;;;;;;;3.17;2.97;;;7.70;99.90;;;;;;5029338;28;20211;-58
2024/02/03 07:23:27;;;;;;;3.47;2.10;;;7.70;99.90;;;;;;5029845;28;20704;-58
2024/02/03 07:25:54;;;;;;;2.50;2.08;;;7.70;99.90;;;;;;5029814;28;20318;-58
2024/02/03 07:28:20;;;;;;;2.00;1.90;;;7.80;99.90;;;;;;5029841;28;20301;-59
2024/02/03 07:30:48;;;;;;;1.73;1.63;;;7.80;99.90;;;;;;5029269;28;20211;-59
2024/02/03 07:33:15;;;;;;;1.80;1.70;;;7.80;99.90;;;;;;5029590;28;20848;-58
2024/02/03 07:35:42;;;;;;;2.15;1.92;;;7.90;99.90;;;;;;5029291;28;20233;-58
2024/02/03 07:38:09;;;;;;;1.85;1.67;;;7.90;99.90;;;;;;5029496;28;20217;-60
2024/02/03 07:40:36;;;;;;;1.73;1.45;;;7.90;99.90;;;;;;5029175;28;20213;-60
2024/02/03 07:43:03;;;;;;;1.50;1.35;;;8.00;99.90;;;;;;5027004;28;20249;-61
2024/02/03 07:45:29;;;;;;;1.60;1.50;;;8.00;99.90;;;;;;5023953;28;20199;-60
2024/02/03 07:47:58;;;;;;;1.42;1.33;;;8.00;99.90;;;;;;5029628;28;20306;-61
2024/02/03 07:50:24;;;;;;;1.60;1.45;;;8.10;99.90;;;;;;5029685;28;20306;-56
2024/02/03 07:52:51;;;;;;;3.40;2.15;;;8.10;99.90;;;;;;5028151;28;20689;-59
2024/02/03 07:55:18;;;;;;;2.22;1.65;;;8.10;99.90;;;;;;5029164;28;20207;-59
2024/02/03 07:57:45;;;;;;;2.05;1.42;;;8.10;99.90;;;;;;5029228;28;20349;-60
2024/02/03 08:00:12;;;;;;;1.55;1.30;;;8.20;99.90;;;;;;5020676;28;20290;-59
2024/02/03 08:02:39;;;;;;;1.30;1.20;;;8.20;99.90;;;;;;5028476;28;20217;-59
2024/02/03 08:05:07;;;;;;;1.38;1.27;;;8.20;99.90;;;;;;5029525;28;20592;-59
2024/02/03 08:07:36;;;;;;;2.60;1.63;;;8.20;99.90;;;;;;5027482;28;20222;-58
2024/02/03 08:10:03;;;;;;;5.15;1.88;;;8.30;99.90;;;;;;5021703;28;20747;-59
2024/02/03 08:12:29;;;;;;;1.80;1.70;;;8.30;99.90;;;;;;5026049;28;20253;-60
2024/02/03 08:14:56;;;;;;;1.17;1.13;;;8.40;99.90;;;;;;5018662;28;20281;-58
2024/02/03 08:17:22;;;;;;;1.77;1.67;;;8.40;99.90;;;;;;5022064;28;20998;-61
2024/02/03 08:19:49;;;;;;;4.15;2.05;;;8.50;99.90;;;;;;5023000;28;20215;-60
2024/02/03 08:22:17;;;;;;;2.10;1.57;;;8.50;99.90;;;;;;5021104;28;20208;-61
2024/02/03 08:24:44;;;;;;;3.13;1.60;;;8.60;99.90;;;;;;5021848;28;21135;-61
2024/02/03 08:27:11;;;;;;;1.25;1.20;;;8.60;99.90;;;;;;5014003;28;20219;-58
2024/02/03 08:29:38;;;;;;;1.90;1.70;;;8.70;99.90;;;;;;5024487;28;20222;-60
2024/02/03 08:32:05;;;;;;;2.57;1.90;;;8.70;99.90;;;;;;5021913;28;20217;-60
2024/02/03 08:34:32;;;;;;;2.30;2.20;;;8.80;99.90;;;;;;5024254;28;20889;-58
2024/02/03 08:36:59;;;;;;;1.60;1.50;;;8.80;99.90;;;;;;5034744;22;20514;-61
2024/02/03 08:39:27;;;;;;;2.23;1.37;;;8.80;99.90;;;;;;5007344;28;20847;-62
2024/02/03 08:41:54;;;;;;;2.40;2.20;;;8.90;99.90;;;;;;5005801;28;20450;-62
2024/02/03 08:44:21;;;;;;;1.70;1.60;;;8.90;99.90;;;;;;5007536;28;20298;-61
2024/02/03 08:46:48;;;;;;;2.60;2.40;;;8.90;99.90;;;;;;5000868;28;20232;-61
2024/02/03 08:49:15;;;;;;;1.57;1.47;;;9.00;99.90;;;;;;4982606;28;20213;-61
2024/02/03 08:51:42;;;;;;;1.55;1.25;;;9.00;99.90;;;;;;4976827;28;20464;-61
2024/02/03 08:54:09;;;;;;;1.35;1.25;;;9.00;99.90;;;;;;4982878;28;20208;-62
2024/02/03 08:56:37;;;;;;;1.23;1.13;;;9.00;99.90;;;;;;4986448;28;20790;-61
2024/02/03 08:59:04;;;;;;;1.10;1.10;;;9.10;99.90;;;;;;4981978;28;20555;-61
2024/02/03 09:01:31;;;;;;;1.37;1.17;;;9.10;99.90;;;;;;4984566;28;20679;-60
2024/02/03 09:03:57;;;;;;;1.30;1.13;;;9.10;99.90;;;;;;4986683;28;20470;-60
2024/02/03 09:06:24;;;;;;;1.60;1.43;;;9.20;99.90;;;;;;4985261;28;20463;-61
2024/02/03 09:08:51;;;;;;;1.48;1.13;;;9.20;99.90;;;;;;4983321;28;20455;-62
2024/02/03 09:11:18;;;;;;;1.55;1.05;;;9.20;99.90;;;;;;4982917;28;20212;-61
2024/02/03 09:13:46;;;;;;;1.67;1.50;;;9.20;99.90;;;;;;4984810;28;20209;-61
2024/02/03 09:16:13;;;;;;;1.30;1.17;;;9.20;99.90;;;;;;4981935;28;20228;-61
2024/02/03 09:18:40;;;;;;;1.23;1.13;;;9.20;99.90;;;;;;4980629;28;20218;-61
2024/02/03 09:21:09;;;;;;;1.70;1.57;;;9.30;99.90;;;;;;4983976;28;20546;-61
2024/02/03 09:23:37;;;;;;;1.27;1.17;;;9.30;99.90;;;;;;4987832;28;20468;-61
2024/02/03 09:26:04;;;;;;;0.90;0.90;;;9.30;99.90;;;;;;4989328;28;20873;-62
2024/02/03 09:28:31;;;;;;;1.10;1.07;;;9.30;99.90;;;;;;4986078;28;20463;-60
2024/02/03 09:31:00;;;;;;;1.57;1.47;;;9.30;99.90;;;;;;4985552;28;20537;-61
2024/02/03 09:33:26;;;;;;;2.10;1.33;;;9.30;99.90;;;;;;4989379;28;20840;-61
2024/02/03 09:35:53;;;;;;;1.50;1.40;;;9.30;99.90;;;;;;4985256;28;20456;-62
2024/02/03 09:38:20;;;;;;;1.83;1.10;;;9.30;99.90;;;;;;4983689;28;20780;-61
2024/02/03 09:40:47;;;;;;;1.17;1.10;;;9.40;99.90;;;;;;4989185;28;20452;-61
2024/02/03 09:43:14;;;;;;;0.70;0.70;;;9.50;99.90;;;;;;4981452;28;20462;-61
2024/02/03 09:45:41;;;;;;;2.73;1.97;;;9.50;99.90;;;;;;4988366;28;20451;-61
2024/02/03 09:48:10;;;;;;;1.10;0.90;;;9.50;99.90;;;;;;4986772;28;20486;-61
2024/02/03 09:50:37;;;;;;;1.20;1.20;;;9.50;99.90;;;;;;4990864;28;20988;-61
2024/02/03 09:53:04;;;;;;;1.27;1.17;;;9.50;99.90;;;;;;4983400;28;20463;-61
2024/02/03 09:55:31;;;;;;;1.10;1.10;;;9.50;99.90;;;;;;4989357;28;20459;-61
2024/02/03 09:57:59;;;;;;;1.10;1.10;;;9.50;99.90;;;;;;4986437;28;20499;-61
2024/02/03 10:00:27;;;;;;;1.23;1.13;;;9.50;99.90;;;;;;4988615;28;20864;-61
2024/02/03 10:02:53;;;;;;;0.77;0.77;;;9.60;99.90;;;;;;4988096;28;20517;-61
2024/02/03 10:05:29;;;;;;;1.20;0.93;;;9.60;99.90;;;;;;4995437;28;20442;-61
2024/02/03 10:08:00;;;;;;;1.30;0.90;;;9.70;99.90;;;;;;4985955;28;20478;-62
2024/02/03 10:10:27;;;;;;;1.43;1.33;;;9.70;99.90;;;;;;4990686;28;20450;-60
2024/02/03 10:13:04;;;;;;;1.10;1.03;;;9.80;99.90;;;;;;4988655;28;20466;-61
2024/02/03 10:15:31;;;;;;;1.37;1.17;;;9.80;99.90;;;;;;4990198;28;20554;-61
2024/02/03 10:17:59;;;;;;;0.83;0.83;;;9.90;99.90;;;;;;4989655;28;20495;-61
2024/02/03 10:20:26;;;;;;;1.87;0.70;;;10.00;99.90;;;;;;4987999;28;20956;-61
2024/02/03 10:22:54;;;;;;;2.20;1.10;;;10.00;99.90;;;;;;4988537;28;20447;-58
2024/02/03 10:25:25;;;;;;;1.00;1.00;;;10.00;99.90;;;;;;4990594;28;20825;-61
2024/02/03 10:28:00;;;;;;;1.13;0.93;;;10.00;99.90;;;;;;4990423;28;20471;-61
2024/02/03 10:30:29;;;;;;;1.37;1.20;;;10.00;99.90;;;;;;4985726;28;20459;-61
2024/02/03 10:32:59;;;;;;;0.87;0.87;;;9.90;99.90;;;;;;4985298;28;20462;-61
2024/02/03 10:35:28;;;;;;;1.00;0.90;;;9.90;99.90;;;;;;4990909;28;20951;-61
2024/02/03 10:37:56;;;;;;;0.70;0.70;;;9.90;99.90;;;;;;4990520;28;21064;-61
2024/02/03 10:40:25;;;;;;;0.80;0.80;;;9.90;99.90;;;;;;4990641;28;21245;-61
2024/02/03 10:42:53;;;;;;;2.73;1.43;;;9.90;99.90;;;;;;4985101;28;20912;-60
2024/02/03 10:45:26;;;;;;;0.80;0.80;;;9.80;99.90;;;;;;4990193;28;20562;-61
2024/02/03 10:47:55;;;;;;;1.20;1.07;;;9.90;99.90;;;;;;4990130;28;20475;-61
2024/02/03 10:50:23;;;;;;;0.77;0.77;;;9.80;99.90;;;;;;4990235;28;20457;-61
2024/02/03 10:52:53;;;;;;;1.10;1.00;;;9.80;99.90;;;;;;4989668;28;20818;-60
2024/02/03 10:55:24;;;;;;;0.80;0.80;;;9.80;99.90;;;;;;4986520;28;20448;-61
2024/02/03 10:57:52;;;;;;;0.90;0.90;;;9.80;99.90;;;;;;4990028;28;20494;-61
2024/02/03 11:00:21;;;;;;;1.07;0.97;;;9.80;99.90;;;;;;4986138;28;20458;-61
2024/02/03 11:02:52;;;;;;;1.30;1.20;;;9.80;99.90;;;;;;4980822;28;21011;-61
2024/02/03 11:05:22;;;;;;;1.00;1.00;;;9.80;99.90;;;;;;4998115;28;21041;-61
2024/02/03 11:07:49;;;;;;;0.70;0.70;;;9.80;99.90;;;;;;4983891;28;20467;-60
2024/02/03 11:10:16;;;;;;;1.13;1.13;;;9.80;99.90;;;;;;4978346;28;20447;-61
2024/02/03 11:12:46;;;;;;;1.33;0.97;;;9.80;99.90;;;;;;5000151;28;20451;-61
2024/02/03 11:15:14;;;;;;;1.60;0.90;;;9.80;99.90;;;;;;4990785;28;20454;-61
2024/02/03 11:17:43;;;;;;;1.03;0.80;;;9.80;99.90;;;;;;4981924;28;20500;-61
2024/02/03 11:20:18;;;;;;;1.43;0.80;;;9.80;99.90;;;;;;4978896;28;20921;-61
2024/02/03 11:22:51;;;;;;;2.63;2.40;;;9.80;99.90;;;;;;4981546;28;20452;-61
2024/02/03 11:25:19;;;;;;;0.60;0.60;;;9.80;99.90;;;;;;4979523;28;20544;-60
2024/02/03 11:27:48;;;;;;;2.77;1.10;;;9.80;99.90;;;;;;4980940;28;21360;-61
2024/02/03 11:30:17;;;;;;;0.97;0.97;;;9.80;99.90;;;;;;4985013;28;20443;-61
2024/02/03 11:32:44;;;;;;;0.67;0.50;;;9.80;99.90;;;;;;4982485;28;21019;-61
2024/02/03 11:35:11;;;;;;;1.10;1.00;;;9.80;99.90;;;;;;4991076;28;20447;-61
2024/02/03 11:37:38;;;;;;;1.90;1.80;;;9.80;99.90;;;;;;4980982;28;20505;-59
2024/02/03 11:40:09;;;;;;;1.40;1.30;;;9.80;99.90;;;;;;4980958;28;20543;-61
2024/02/03 11:42:36;;;;;;;0.83;0.80;;;9.90;99.90;;;;;;4979390;28;20467;-61
2024/02/03 11:45:10;;;;;;;2.50;0.87;;;9.90;99.90;;;;;;4979999;28;20826;-61
2024/02/03 11:47:37;;;;;;;0.90;0.90;;;9.80;99.90;;;;;;4984042;28;20858;-61
2024/02/03 11:50:04;;;;;;;1.50;0.80;;;9.90;99.90;;;;;;4985750;28;20454;-61
2024/02/03 11:52:31;;;;;;;1.80;1.70;;;9.80;99.90;;;;;;4982536;28;20464;-61
2024/02/03 11:54:58;;;;;;;2.20;2.10;;;9.80;99.90;;;;;;4986532;28;20970;-61
2024/02/03 11:57:25;;;;;;;0.60;0.60;;;9.90;99.90;;;;;;4984617;28;20491;-59
2024/02/03 11:59:59;;;;;;;0.80;0.80;;;9.80;99.90;;;;;;4983571;28;20451;-60
2024/02/03 12:02:29;;;;;;;1.07;1.07;;;9.80;99.90;;;;;;4981380;28;20489;-61
2024/02/03 12:04:56;;;;;;;0.80;0.80;;;9.80;99.90;;;;;;4985800;28;20456;-61
2024/02/03 12:07:23;;;;;;;1.07;0.90;;;9.80;99.90;;;;;;4987515;28;20574;-61
2024/02/03 12:09:50;;;;;;;0.90;0.90;;;9.80;99.90;;;;;;4986468;28;20954;-61
2024/02/03 12:12:17;;;;;;;1.00;1.00;;;9.80;99.90;;;;;;4987418;28;20456;-61
2024/02/03 12:14:44;;;;;;;1.60;1.00;;;9.90;99.90;;;;;;4986276;28;20467;-61
2024/02/03 12:17:11;;;;;;;1.33;1.20;;;9.80;99.90;;;;;;4986418;28;20523;-60
2024/02/03 12:19:39;;;;;;;1.20;1.10;;;9.90;99.90;;;;;;4988102;28;20534;-61
2024/02/03 12:22:06;;;;;;;1.17;1.17;;;9.90;99.90;;;;;;4986328;28;20478;-61
2024/02/03 12:24:33;;;;;;;1.30;1.30;;;9.90;99.90;;;;;;4987727;28;20451;-61
2024/02/03 12:27:00;;;;;;;1.50;1.40;;;10.00;99.90;;;;;;4984936;28;20483;-61
2024/02/03 12:29:27;;;;;;;1.57;1.47;;;10.00;99.90;;;;;;4986705;28;20978;-61
2024/02/03 12:31:54;;;;;;;1.87;1.77;;;10.00;99.90;;;;;;4979364;28;20463;-60
2024/02/03 12:34:21;;;;;;;1.40;1.13;;;10.00;99.90;;;;;;4988062;28;20447;-60
2024/02/03 12:36:49;;;;;;;1.47;1.37;;;10.00;99.90;;;;;;4988129;28;20566;-61
2024/02/03 12:39:16;;;;;;;1.87;1.77;;;10.00;99.90;;;;;;4987962;28;20460;-61
2024/02/03 12:41:43;;;;;;;1.00;1.00;;;10.00;99.90;;;;;;4986387;28;20547;-61
2024/02/03 12:44:10;;;;;;;0.90;0.90;;;9.90;99.90;;;;;;4988173;28;20451;-61
2024/02/03 12:46:38;;;;;;;1.57;1.10;;;9.90;99.90;;;;;;4990490;28;20476;-61
2024/02/03 12:49:05;;;;;;;0.93;0.93;;;9.90;99.90;;;;;;4992121;28;20451;-61
2024/02/03 12:51:32;;;;;;;1.07;1.03;;;9.90;99.90;;;;;;4991792;28;20453;-60
2024/02/03 12:54:00;;;;;;;1.00;0.90;;;9.90;99.90;;;;;;4991832;28;20902;-60
2024/02/03 12:56:27;;;;;;;2.30;1.03;;;9.80;99.90;;;;;;4992130;28;20476;-61